Time;durP1;ratioP1;P1;durP2;ratioP2;P2;SDS_P1;SDS_P2;PMS_P1;PMS_P2;Temp;Humidity;BMP_temperature;BMP_pressure;BME280_temperature;BME280_humidity;BME280_pressure;Samples;Min_cycle;Max_cycle;Signal;HPM_P1;HPM_P2
2023/10/31 00:00:17;;;;;;;1.93;0.70;;;10.20;99.90;;;;;;5089621;28;20184;-75
2023/10/31 00:02:43;;;;;;;1.00;0.50;;;10.00;99.90;;;;;;5089438;28;20212;-73
2023/10/31 00:05:08;;;;;;;1.60;0.53;;;10.00;99.90;;;;;;5086587;28;20434;-73
2023/10/31 00:07:34;;;;;;;1.10;0.50;;;10.00;99.90;;;;;;5092562;28;20247;-73
2023/10/31 00:10:00;;;;;;;1.00;0.40;;;10.00;99.90;;;;;;5089210;28;20212;-74
2023/10/31 00:12:25;;;;;;;1.00;0.40;;;10.00;99.90;;;;;;5089473;28;20196;-73
2023/10/31 00:14:51;;;;;;;1.10;0.40;;;10.00;99.90;;;;;;5089367;28;20359;-73
2023/10/31 00:17:17;;;;;;;1.57;0.50;;;10.10;99.90;;;;;;5089735;28;20646;-72
2023/10/31 00:19:44;;;;;;;1.20;0.40;;;10.10;99.90;;;;;;5093077;28;20268;-73
2023/10/31 00:22:10;;;;;;;1.30;0.60;;;10.00;99.90;;;;;;5093483;28;20223;-73
2023/10/31 00:24:35;;;;;;;1.20;0.50;;;10.00;99.90;;;;;;5093652;28;20443;-73
2023/10/31 00:27:01;;;;;;;1.10;0.50;;;10.00;99.90;;;;;;5093446;28;20183;-73
2023/10/31 00:29:27;;;;;;;1.20;0.60;;;10.00;99.90;;;;;;5093188;28;20271;-73
2023/10/31 00:31:52;;;;;;;1.40;0.53;;;10.00;99.90;;;;;;5092958;28;20216;-75
2023/10/31 00:34:18;;;;;;;1.03;0.40;;;10.00;99.90;;;;;;5093389;28;20264;-73
2023/10/31 00:36:44;;;;;;;1.10;0.50;;;10.00;99.90;;;;;;5093305;28;20585;-73
2023/10/31 00:39:10;;;;;;;1.47;0.63;;;9.90;99.90;;;;;;5092929;28;20176;-73
2023/10/31 00:41:35;;;;;;;1.40;0.50;;;9.90;99.90;;;;;;5092269;28;20448;-74
2023/10/31 00:44:01;;;;;;;1.10;0.50;;;9.90;99.90;;;;;;5092501;28;20267;-73
2023/10/31 00:46:26;;;;;;;1.10;0.40;;;9.90;99.90;;;;;;5093162;28;20533;-73
2023/10/31 00:48:52;;;;;;;1.10;0.40;;;10.00;99.90;;;;;;5093190;28;20642;-73
2023/10/31 00:51:17;;;;;;;1.10;0.50;;;10.00;99.90;;;;;;5092762;28;20212;-73
2023/10/31 00:53:43;;;;;;;1.00;0.40;;;9.90;99.90;;;;;;5092965;28;20305;-74
2023/10/31 00:56:09;;;;;;;1.60;0.60;;;9.90;99.90;;;;;;5093081;28;20730;-73
2023/10/31 00:58:34;;;;;;;1.30;0.50;;;9.80;99.90;;;;;;5092926;28;20191;-73
2023/10/31 01:01:00;;;;;;;1.10;0.40;;;9.80;99.90;;;;;;5093171;28;20578;-73
2023/10/31 01:03:26;;;;;;;3.00;0.50;;;9.80;99.90;;;;;;5093747;28;20263;-73
2023/10/31 01:05:51;;;;;;;1.60;0.50;;;9.70;99.90;;;;;;5089335;28;20188;-75
2023/10/31 01:08:17;;;;;;;1.10;0.50;;;9.60;99.90;;;;;;5093227;28;20736;-73
2023/10/31 01:10:42;;;;;;;5.00;0.60;;;9.60;99.90;;;;;;5093503;28;20208;-73
2023/10/31 01:13:08;;;;;;;1.20;0.50;;;9.50;99.90;;;;;;5101135;28;20204;-73
2023/10/31 01:15:34;;;;;;;1.37;0.50;;;9.40;99.90;;;;;;5093260;28;20187;-73
2023/10/31 01:17:59;;;;;;;1.40;0.70;;;9.30;99.90;;;;;;5076585;28;20572;-77
2023/10/31 01:20:25;;;;;;;1.30;0.60;;;9.30;99.90;;;;;;5099396;28;20184;-74
2023/10/31 01:22:51;;;;;;;1.10;0.40;;;9.30;99.90;;;;;;5093168;28;20258;-73
2023/10/31 01:25:17;;;;;;;3.00;0.60;;;9.20;99.90;;;;;;5064496;28;20426;-71
2023/10/31 01:27:43;;;;;;;1.10;0.50;;;9.10;99.90;;;;;;5093460;28;20180;-71
2023/10/31 01:30:09;;;;;;;1.10;0.50;;;9.10;99.90;;;;;;5078690;28;20236;-71
2023/10/31 01:32:34;;;;;;;1.17;0.50;;;9.00;99.90;;;;;;5093130;28;20468;-71
2023/10/31 01:35:00;;;;;;;1.20;0.40;;;9.00;99.90;;;;;;5093329;28;20419;-72
2023/10/31 01:37:26;;;;;;;1.10;0.40;;;9.00;99.90;;;;;;5069018;28;20173;-71
2023/10/31 01:39:52;;;;;;;1.20;0.50;;;9.20;99.90;;;;;;5090217;28;20187;-71
2023/10/31 01:42:18;;;;;;;1.10;0.50;;;9.10;99.90;;;;;;5098519;28;20498;-71
2023/10/31 01:44:44;;;;;;;1.40;0.50;;;9.10;99.90;;;;;;5095709;28;20863;-71
2023/10/31 01:47:10;;;;;;;1.60;0.50;;;9.20;99.90;;;;;;5093255;28;20429;-72
2023/10/31 01:49:36;;;;;;;1.77;0.70;;;9.10;99.90;;;;;;5101853;28;20189;-71
2023/10/31 01:52:04;;;;;;;1.20;0.60;;;9.20;99.90;;;;;;5104366;28;20218;-71
2023/10/31 01:54:30;;;;;;;2.50;0.70;;;9.20;99.90;;;;;;5096781;28;20555;-71
2023/10/31 01:56:57;;;;;;;2.23;0.60;;;9.20;99.90;;;;;;5101839;28;20414;-71
2023/10/31 01:59:27;;;;;;;1.70;0.70;;;9.10;99.90;;;;;;5093358;28;20180;-71
2023/10/31 02:01:54;;;;;;;1.30;0.80;;;9.10;99.90;;;;;;5092503;28;20446;-70
2023/10/31 02:04:20;;;;;;;1.20;0.50;;;9.20;99.90;;;;;;5069382;28;20970;-71
2023/10/31 02:06:45;;;;;;;20.97;1.00;;;9.20;99.90;;;;;;5102076;28;20430;-71
2023/10/31 02:09:11;;;;;;;1.20;0.60;;;9.10;99.90;;;;;;5076348;28;20257;-73
2023/10/31 02:11:37;;;;;;;2.60;0.73;;;9.10;99.90;;;;;;5066100;28;20235;-71
2023/10/31 02:14:03;;;;;;;1.30;0.60;;;9.10;99.90;;;;;;5074276;28;20185;-70
2023/10/31 02:16:29;;;;;;;1.10;0.50;;;9.20;99.90;;;;;;5092853;28;20419;-72
2023/10/31 02:18:54;;;;;;;1.10;0.43;;;9.20;99.90;;;;;;5068701;28;20191;-71
2023/10/31 02:21:20;;;;;;;1.17;0.60;;;9.20;99.90;;;;;;5098991;28;20665;-70
2023/10/31 02:24:00;;;;;;;1.10;0.50;;;9.20;99.90;;;;;;5098058;28;20196;-71
2023/10/31 02:26:30;;;;;;;1.20;0.50;;;9.20;99.90;;;;;;5093227;28;20267;-72
2023/10/31 02:28:55;;;;;;;1.40;0.60;;;9.20;99.90;;;;;;5094105;28;20517;-70
2023/10/31 02:31:21;;;;;;;1.10;0.50;;;9.20;99.90;;;;;;5087054;28;21062;-72
2023/10/31 02:33:47;;;;;;;1.10;0.47;;;9.10;99.90;;;;;;5092111;28;20396;-71
2023/10/31 02:36:12;;;;;;;1.20;0.57;;;9.10;99.90;;;;;;5066355;28;20567;-71
2023/10/31 02:38:39;;;;;;;1.20;0.50;;;9.10;99.90;;;;;;5070862;28;20654;-72
2023/10/31 02:41:04;;;;;;;1.40;0.60;;;9.10;99.90;;;;;;5085334;28;20173;-71
2023/10/31 02:43:30;;;;;;;1.87;0.77;;;9.20;99.90;;;;;;5072784;28;20454;-75
2023/10/31 02:45:55;;;;;;;1.10;0.50;;;9.20;99.90;;;;;;5092679;28;20184;-72
2023/10/31 02:48:21;;;;;;;1.40;0.50;;;9.20;99.90;;;;;;5067222;28;20634;-71
2023/10/31 02:50:46;;;;;;;1.20;0.60;;;9.20;99.90;;;;;;5063784;28;20240;-72
2023/10/31 02:53:12;;;;;;;1.10;0.50;;;9.20;99.90;;;;;;5075040;28;20257;-73
2023/10/31 02:55:38;;;;;;;1.10;0.50;;;9.30;99.90;;;;;;5094625;28;20240;-71
2023/10/31 02:58:03;;;;;;;1.30;0.50;;;9.10;99.90;;;;;;5104942;28;20670;-74
2023/10/31 03:00:29;;;;;;;1.40;0.53;;;9.20;99.90;;;;;;5102606;28;20179;-80
2023/10/31 03:02:54;;;;;;;1.40;0.60;;;9.10;99.90;;;;;;5100371;28;20264;-81
2023/10/31 03:05:20;;;;;;;7.23;0.53;;;9.10;99.90;;;;;;5100708;28;20177;-81
2023/10/31 03:07:46;;;;;;;1.20;0.50;;;9.10;99.90;;;;;;5122099;28;20173;-81
2023/10/31 03:10:11;;;;;;;2.43;0.70;;;9.00;99.90;;;;;;5100885;28;20192;-82
2023/10/31 03:12:37;;;;;;;1.20;0.50;;;9.10;99.90;;;;;;5098994;28;20231;-72
2023/10/31 03:15:03;;;;;;;1.10;0.50;;;9.10;99.90;;;;;;5091869;28;20668;-74
2023/10/31 03:17:29;;;;;;;1.10;0.40;;;9.10;99.90;;;;;;5064189;28;20203;-73
2023/10/31 03:19:55;;;;;;;6.00;0.53;;;9.10;99.90;;;;;;5093334;28;20437;-72
2023/10/31 03:22:21;;;;;;;5.10;0.50;;;9.10;99.90;;;;;;5068444;28;20443;-72
2023/10/31 03:24:47;;;;;;;3.80;0.50;;;9.00;99.90;;;;;;5072575;28;20252;-72
2023/10/31 03:27:12;;;;;;;2.83;0.80;;;9.00;99.90;;;;;;5081002;28;20192;-72
2023/10/31 03:29:38;;;;;;;2.23;0.80;;;8.90;99.90;;;;;;5091713;28;20185;-72
2023/10/31 03:32:05;;;;;;;1.50;0.57;;;8.90;99.90;;;;;;5099619;28;20277;-72
2023/10/31 03:34:30;;;;;;;1.37;0.50;;;8.90;99.90;;;;;;5091943;28;20218;-72
2023/10/31 03:36:56;;;;;;;1.30;0.50;;;8.80;99.90;;;;;;5097692;28;20418;-72
2023/10/31 03:39:21;;;;;;;1.10;0.50;;;8.90;99.90;;;;;;5099915;28;20255;-74
2023/10/31 03:41:47;;;;;;;1.20;0.50;;;8.80;99.90;;;;;;5073229;28;20429;-72
2023/10/31 03:44:13;;;;;;;1.30;0.70;;;8.80;99.90;;;;;;5073466;28;20378;-72
2023/10/31 03:46:39;;;;;;;1.93;0.50;;;8.90;99.90;;;;;;5100996;28;20200;-73
2023/10/31 03:49:07;;;;;;;1.10;0.50;;;8.80;99.90;;;;;;5058028;28;20654;-72
2023/10/31 03:51:33;;;;;;;1.60;0.60;;;8.70;99.90;;;;;;5095136;28;20257;-72
2023/10/31 03:53:59;;;;;;;1.33;0.50;;;8.70;99.90;;;;;;5093067;28;21270;-72
2023/10/31 03:56:25;;;;;;;1.10;0.50;;;8.70;99.90;;;;;;5079745;28;20425;-72
2023/10/31 03:58:50;;;;;;;1.57;0.83;;;8.70;99.90;;;;;;5098372;28;20308;-72
2023/10/31 04:01:16;;;;;;;1.40;0.70;;;8.80;99.90;;;;;;5079505;28;20572;-72
2023/10/31 04:03:42;;;;;;;1.20;0.60;;;8.70;99.90;;;;;;5102145;28;20551;-72
2023/10/31 04:06:08;;;;;;;1.20;0.43;;;8.70;99.90;;;;;;5101027;28;20232;-72
2023/10/31 04:08:33;;;;;;;1.20;0.50;;;8.60;99.90;;;;;;5079022;28;20922;-72
2023/10/31 04:10:59;;;;;;;1.10;0.50;;;8.70;99.90;;;;;;5070657;28;21018;-72
2023/10/31 04:13:25;;;;;;;1.30;0.50;;;8.80;99.90;;;;;;5077331;28;20509;-72
2023/10/31 04:15:50;;;;;;;1.23;0.63;;;8.60;99.90;;;;;;5101927;28;20177;-73
2023/10/31 04:18:16;;;;;;;1.20;0.53;;;8.70;99.90;;;;;;5099269;28;20172;-72
2023/10/31 04:20:42;;;;;;;1.30;0.40;;;8.70;99.90;;;;;;5080253;28;20187;-72
2023/10/31 04:23:08;;;;;;;7.33;0.50;;;8.70;99.90;;;;;;5101556;28;20441;-71
2023/10/31 04:25:34;;;;;;;2.80;0.67;;;8.70;99.90;;;;;;5102604;28;20194;-72
2023/10/31 04:28:00;;;;;;;1.10;0.40;;;8.70;99.90;;;;;;5070978;28;20268;-72
2023/10/31 04:30:26;;;;;;;1.20;0.50;;;8.70;99.90;;;;;;5079300;28;20341;-72
2023/10/31 04:32:52;;;;;;;1.10;0.50;;;8.60;99.90;;;;;;5097987;28;20211;-72
2023/10/31 04:35:17;;;;;;;1.10;0.50;;;8.60;99.90;;;;;;5105736;28;20402;-71
2023/10/31 04:37:43;;;;;;;1.10;0.40;;;8.60;99.90;;;;;;5098266;28;20207;-76
2023/10/31 04:40:10;;;;;;;1.00;0.40;;;8.60;99.90;;;;;;5081490;28;20181;-72
2023/10/31 04:42:35;;;;;;;10.73;0.70;;;8.60;99.90;;;;;;5078932;28;20295;-74
2023/10/31 04:45:01;;;;;;;1.40;0.70;;;8.60;99.90;;;;;;5079736;28;20923;-72
2023/10/31 04:47:27;;;;;;;1.50;0.50;;;8.60;99.90;;;;;;5106631;28;20182;-72
2023/10/31 04:49:52;;;;;;;1.20;0.50;;;8.60;99.90;;;;;;5103399;28;20176;-72
2023/10/31 04:52:19;;;;;;;1.40;0.50;;;8.60;99.90;;;;;;5079379;28;20204;-72
2023/10/31 04:54:45;;;;;;;1.37;0.63;;;8.50;99.90;;;;;;5106199;28;20180;-72
2023/10/31 04:57:11;;;;;;;1.10;0.50;;;8.50;99.90;;;;;;5097916;28;20459;-72
2023/10/31 04:59:37;;;;;;;4.10;0.50;;;8.50;99.90;;;;;;5108298;28;20179;-72
2023/10/31 05:02:03;;;;;;;1.20;0.57;;;8.50;99.90;;;;;;5105600;28;20279;-72
2023/10/31 05:04:29;;;;;;;1.10;0.50;;;8.60;99.90;;;;;;5070400;28;20521;-72
2023/10/31 05:06:54;;;;;;;3.00;0.77;;;8.60;99.90;;;;;;5095422;28;20196;-72
2023/10/31 05:09:20;;;;;;;2.23;0.70;;;8.50;99.90;;;;;;5077069;28;20664;-72
2023/10/31 05:11:45;;;;;;;4.90;0.90;;;8.50;99.90;;;;;;5076611;28;20303;-73
2023/10/31 05:14:11;;;;;;;4.20;0.60;;;8.50;99.90;;;;;;5105325;28;20171;-72
2023/10/31 05:16:43;;;;;;;2.33;0.50;;;8.50;99.90;;;;;;5071986;28;20174;-72
2023/10/31 05:19:09;;;;;;;1.97;0.63;;;8.40;99.90;;;;;;5086538;28;20232;-72
2023/10/31 05:21:35;;;;;;;1.10;0.50;;;8.40;99.90;;;;;;5075605;28;20434;-71
2023/10/31 05:24:00;;;;;;;2.03;0.63;;;8.40;99.90;;;;;;5088645;28;21008;-72
2023/10/31 05:26:28;;;;;;;1.10;0.50;;;8.40;99.90;;;;;;5086235;28;20201;-73
2023/10/31 05:28:54;;;;;;;1.10;0.40;;;8.30;99.90;;;;;;5067882;28;20180;-73
2023/10/31 05:31:19;;;;;;;1.10;0.50;;;8.30;99.90;;;;;;5089371;28;20473;-74
2023/10/31 05:33:45;;;;;;;1.20;0.50;;;8.30;99.90;;;;;;5086677;28;20492;-72
2023/10/31 05:36:24;;;;;;;1.13;0.47;;;8.30;99.90;;;;;;5087140;28;20184;-72
2023/10/31 05:38:50;;;;;;;1.10;0.50;;;8.30;99.90;;;;;;5085773;28;20657;-71
2023/10/31 05:41:15;;;;;;;1.93;0.57;;;8.30;99.90;;;;;;5065868;28;20471;-72
2023/10/31 05:43:41;;;;;;;5.17;1.07;;;8.30;99.90;;;;;;5068611;28;20235;-71
2023/10/31 05:46:10;;;;;;;1.50;0.70;;;8.20;99.90;;;;;;5088849;28;20954;-75
2023/10/31 05:48:40;;;;;;;1.17;0.50;;;8.20;99.90;;;;;;5087424;28;20551;-73
2023/10/31 05:51:13;;;;;;;1.10;0.40;;;8.20;99.90;;;;;;5088593;28;20523;-72
2023/10/31 05:53:40;;;;;;;1.50;0.70;;;8.20;99.90;;;;;;5088954;28;20426;-72
2023/10/31 05:56:07;;;;;;;1.20;0.50;;;8.10;99.90;;;;;;5084699;28;20434;-73
2023/10/31 05:58:33;;;;;;;1.33;0.53;;;8.10;99.90;;;;;;5085831;28;20423;-72
2023/10/31 06:00:58;;;;;;;2.03;1.10;;;8.20;99.90;;;;;;5085592;28;20442;-73
2023/10/31 06:03:24;;;;;;;1.20;0.60;;;8.20;99.90;;;;;;5086424;28;20191;-72
2023/10/31 06:05:50;;;;;;;1.50;0.60;;;8.20;99.90;;;;;;5069679;28;20333;-74
2023/10/31 06:08:15;;;;;;;1.60;0.70;;;8.10;99.90;;;;;;5087462;28;20188;-77
2023/10/31 06:10:41;;;;;;;1.30;0.50;;;8.10;99.90;;;;;;5069965;28;20220;-72
2023/10/31 06:13:07;;;;;;;1.20;0.50;;;8.10;99.90;;;;;;5087437;28;20200;-71
2023/10/31 06:15:33;;;;;;;2.20;0.70;;;8.10;99.90;;;;;;5085556;28;20672;-75
2023/10/31 06:17:59;;;;;;;1.30;0.60;;;8.20;99.90;;;;;;5066414;28;20430;-73
2023/10/31 06:20:25;;;;;;;1.10;0.50;;;8.20;99.90;;;;;;5071038;28;20254;-73
2023/10/31 06:22:50;;;;;;;1.10;0.50;;;8.10;99.90;;;;;;5069878;28;20233;-75
2023/10/31 06:25:16;;;;;;;1.10;0.40;;;8.10;99.90;;;;;;5069754;28;20669;-72
2023/10/31 06:27:41;;;;;;;2.53;0.70;;;8.10;99.90;;;;;;5087924;28;20665;-72
2023/10/31 06:30:08;;;;;;;1.20;0.60;;;8.10;99.90;;;;;;5087397;28;20260;-72
2023/10/31 06:32:33;;;;;;;1.30;0.50;;;8.10;99.90;;;;;;5086258;28;20216;-72
2023/10/31 06:34:59;;;;;;;1.10;0.50;;;8.10;99.90;;;;;;5066578;28;20430;-72
2023/10/31 06:37:24;;;;;;;1.73;0.77;;;8.10;99.90;;;;;;5086368;28;20187;-74
2023/10/31 06:39:50;;;;;;;1.70;0.70;;;8.20;99.90;;;;;;5066707;28;20180;-73
2023/10/31 06:42:16;;;;;;;6.40;0.50;;;8.20;99.90;;;;;;5068690;28;20196;-73
2023/10/31 06:44:41;;;;;;;1.30;0.70;;;8.30;99.90;;;;;;5083730;28;20627;-72
2023/10/31 06:47:07;;;;;;;1.63;0.80;;;8.40;99.90;;;;;;5060492;28;20264;-73
2023/10/31 06:49:32;;;;;;;2.30;0.77;;;8.40;99.90;;;;;;5064012;28;20161;-73
2023/10/31 06:51:58;;;;;;;1.57;0.57;;;8.40;99.90;;;;;;5066461;28;20216;-73
2023/10/31 06:54:24;;;;;;;1.70;0.60;;;8.40;99.90;;;;;;5079063;28;20184;-73
2023/10/31 06:56:49;;;;;;;1.20;0.60;;;8.40;99.90;;;;;;5078877;28;20555;-73
2023/10/31 06:59:15;;;;;;;1.77;0.60;;;8.40;99.90;;;;;;5065513;28;20998;-74
2023/10/31 07:01:40;;;;;;;1.50;0.50;;;8.40;99.90;;;;;;5057648;28;20220;-73
2023/10/31 07:04:06;;;;;;;1.90;0.70;;;8.40;99.90;;;;;;5075367;28;20177;-73
2023/10/31 07:06:32;;;;;;;1.20;0.60;;;8.50;99.90;;;;;;5073618;28;20268;-75
2023/10/31 07:09:00;;;;;;;1.40;0.63;;;8.50;99.90;;;;;;5055440;28;20199;-74
2023/10/31 07:11:25;;;;;;;1.57;0.60;;;8.50;99.90;;;;;;5075489;28;20583;-75
2023/10/31 07:13:51;;;;;;;1.17;0.50;;;8.60;99.90;;;;;;5079226;28;20432;-74
2023/10/31 07:16:17;;;;;;;1.60;0.70;;;8.60;99.90;;;;;;5064603;28;20180;-72
2023/10/31 07:18:42;;;;;;;7.17;0.97;;;8.70;99.90;;;;;;5064082;28;20177;-71
2023/10/31 07:21:08;;;;;;;1.10;0.43;;;8.70;99.90;;;;;;5058513;28;20212;-72
2023/10/31 07:23:34;;;;;;;1.50;0.77;;;8.70;99.90;;;;;;5075733;28;20181;-73
2023/10/31 07:25:59;;;;;;;3.73;0.87;;;8.80;99.90;;;;;;5082452;28;20177;-74
2023/10/31 07:28:25;;;;;;;2.00;0.80;;;8.90;99.90;;;;;;5070596;28;21144;-77
2023/10/31 07:30:50;;;;;;;1.67;0.97;;;9.00;99.90;;;;;;5057975;28;20201;-73
2023/10/31 07:33:16;;;;;;;20.43;1.00;;;9.00;99.90;;;;;;5059416;28;20261;-75
2023/10/31 07:35:42;;;;;;;1.50;0.70;;;9.00;99.90;;;;;;5079917;28;20184;-73
2023/10/31 07:38:07;;;;;;;9.90;0.83;;;9.00;99.90;;;;;;5056106;28;20169;-73
2023/10/31 07:40:33;;;;;;;3.00;0.80;;;9.10;99.90;;;;;;5065296;28;20559;-73
2023/10/31 07:42:59;;;;;;;1.43;0.60;;;9.10;99.90;;;;;;5080918;28;20219;-73
2023/10/31 07:45:24;;;;;;;3.67;1.20;;;9.10;99.90;;;;;;5070621;28;20220;-77
2023/10/31 07:47:50;;;;;;;1.13;0.50;;;9.10;99.90;;;;;;5054623;28;20712;-73
2023/10/31 07:50:15;;;;;;;1.10;0.43;;;9.20;99.90;;;;;;5060191;28;20692;-72
2023/10/31 07:52:43;;;;;;;6.50;0.90;;;9.20;99.90;;;;;;5071265;28;20215;-72
2023/10/31 07:55:11;;;;;;;1.30;0.53;;;9.20;99.90;;;;;;5070867;28;20232;-73
2023/10/31 07:57:36;;;;;;;1.47;0.60;;;9.20;99.90;;;;;;5054761;28;20486;-72
2023/10/31 08:00:02;;;;;;;1.43;0.50;;;9.20;99.90;;;;;;5085450;28;20420;-78
2023/10/31 08:02:28;;;;;;;2.03;0.60;;;9.20;99.90;;;;;;5076831;28;20189;-82
2023/10/31 08:04:54;;;;;;;3.20;1.17;;;9.30;99.90;;;;;;5099882;28;20209;-79
2023/10/31 08:07:19;;;;;;;1.43;0.70;;;9.30;99.90;;;;;;5098835;28;20167;-79
2023/10/31 08:09:45;;;;;;;2.20;0.73;;;9.40;99.90;;;;;;5082667;28;20343;-81
2023/10/31 08:12:10;;;;;;;1.93;0.77;;;9.50;99.90;;;;;;5102665;28;20224;-78
2023/10/31 08:14:36;;;;;;;1.40;0.67;;;9.50;99.90;;;;;;5077155;28;20192;-72
2023/10/31 08:17:02;;;;;;;1.50;0.70;;;9.60;99.90;;;;;;5057915;28;20193;-74
2023/10/31 08:19:28;;;;;;;1.67;0.70;;;9.60;99.90;;;;;;5074792;28;20272;-72
2023/10/31 08:21:53;;;;;;;3.73;0.80;;;9.70;99.90;;;;;;5071609;28;20232;-73
2023/10/31 08:24:19;;;;;;;2.50;1.10;;;9.60;99.90;;;;;;5053913;28;20649;-72
2023/10/31 08:26:45;;;;;;;1.60;0.73;;;9.60;99.90;;;;;;5070327;28;20184;-75
2023/10/31 08:29:10;;;;;;;1.23;0.60;;;9.60;99.90;;;;;;5071037;28;20173;-72
2023/10/31 08:31:36;;;;;;;5.20;0.80;;;9.70;99.90;;;;;;5067237;28;20225;-73
2023/10/31 08:34:01;;;;;;;2.20;0.70;;;9.60;99.90;;;;;;5070396;28;20272;-74
2023/10/31 08:36:28;;;;;;;1.83;0.70;;;9.70;99.90;;;;;;5052412;28;20188;-73
2023/10/31 08:38:53;;;;;;;1.77;0.70;;;9.70;99.90;;;;;;5071171;28;20178;-72
2023/10/31 08:41:20;;;;;;;2.70;0.83;;;9.80;99.90;;;;;;5076617;28;20550;-73
2023/10/31 08:43:47;;;;;;;1.20;0.67;;;9.80;99.90;;;;;;5068028;28;20228;-72
2023/10/31 08:46:13;;;;;;;1.83;0.80;;;9.80;99.90;;;;;;5069959;28;20435;-73
2023/10/31 08:48:40;;;;;;;4.23;0.70;;;9.90;99.90;;;;;;5066361;28;20521;-73
2023/10/31 08:51:05;;;;;;;1.30;0.70;;;9.80;99.90;;;;;;5070711;28;20471;-72
2023/10/31 08:53:31;;;;;;;1.60;0.67;;;9.90;99.90;;;;;;5068372;28;20177;-73
2023/10/31 08:55:57;;;;;;;2.17;0.70;;;9.90;99.90;;;;;;5068293;28;20188;-73
2023/10/31 08:58:22;;;;;;;2.07;1.10;;;9.90;99.90;;;;;;5068929;28;20195;-74
2023/10/31 09:00:48;;;;;;;2.40;0.97;;;9.90;99.90;;;;;;5070452;28;20561;-73
2023/10/31 09:03:14;;;;;;;1.53;0.80;;;9.90;99.90;;;;;;5050395;28;20698;-74
2023/10/31 09:05:40;;;;;;;2.23;1.00;;;10.00;99.90;;;;;;5069583;28;20192;-73
2023/10/31 09:08:06;;;;;;;3.23;0.90;;;10.10;99.90;;;;;;5051112;28;20809;-74
2023/10/31 09:10:33;;;;;;;1.30;0.73;;;10.10;99.90;;;;;;5070385;28;20494;-73
2023/10/31 09:12:59;;;;;;;7.33;1.50;;;10.00;99.90;;;;;;5049234;28;20210;-73
2023/10/31 09:15:25;;;;;;;1.73;0.80;;;10.10;99.90;;;;;;5050277;28;20530;-72
2023/10/31 09:17:50;;;;;;;8.83;2.07;;;10.20;99.90;;;;;;5068379;28;20246;-74
2023/10/31 09:20:16;;;;;;;4.53;0.90;;;10.10;99.90;;;;;;5068745;28;20177;-72
2023/10/31 09:22:41;;;;;;;2.77;0.97;;;10.20;99.90;;;;;;5066539;28;20205;-74
2023/10/31 09:25:07;;;;;;;1.30;0.80;;;10.30;99.90;;;;;;5049764;28;20189;-72
2023/10/31 09:27:33;;;;;;;8.60;1.40;;;10.30;99.90;;;;;;5070141;28;20192;-73
2023/10/31 09:29:59;;;;;;;2.63;1.03;;;10.30;99.90;;;;;;5069788;28;20634;-72
2023/10/31 09:32:24;;;;;;;1.97;0.90;;;10.40;99.90;;;;;;5048403;28;20221;-72
2023/10/31 09:34:50;;;;;;;1.83;0.83;;;10.40;99.90;;;;;;5068521;28;20213;-72
2023/10/31 09:37:15;;;;;;;4.67;0.80;;;10.60;99.90;;;;;;5050396;28;20177;-74
2023/10/31 09:39:41;;;;;;;1.83;0.83;;;10.80;99.90;;;;;;5052246;28;20185;-74
2023/10/31 09:42:07;;;;;;;1.70;0.60;;;10.80;99.90;;;;;;5048524;28;20213;-73
2023/10/31 09:44:33;;;;;;;1.57;0.77;;;10.90;99.90;;;;;;5056502;28;20228;-74
2023/10/31 09:47:00;;;;;;;7.30;1.10;;;11.00;99.90;;;;;;5088901;28;20517;-74
2023/10/31 09:49:26;;;;;;;5.90;1.43;;;10.80;99.90;;;;;;5068945;28;20772;-75
2023/10/31 09:51:52;;;;;;;2.40;0.97;;;10.80;99.90;;;;;;5084130;28;20480;-75
2023/10/31 09:54:18;;;;;;;4.57;1.20;;;10.90;99.90;;;;;;5071186;28;20435;-72
2023/10/31 09:56:43;;;;;;;2.03;0.93;;;10.90;99.90;;;;;;5085577;28;20192;-71
2023/10/31 09:59:09;;;;;;;3.83;1.50;;;10.90;99.90;;;;;;5088183;28;20259;-73
2023/10/31 10:01:35;;;;;;;2.60;1.00;;;10.80;99.90;;;;;;5069827;28;20208;-72
2023/10/31 10:04:01;;;;;;;1.73;0.70;;;10.70;99.90;;;;;;5088493;28;20267;-73
2023/10/31 10:06:27;;;;;;;2.90;0.87;;;10.70;99.90;;;;;;5086059;28;21338;-75
2023/10/31 10:08:52;;;;;;;5.13;1.60;;;10.90;99.90;;;;;;5085609;28;20423;-74
2023/10/31 10:11:19;;;;;;;2.37;0.80;;;10.90;99.90;;;;;;5068297;28;20613;-73
2023/10/31 10:13:45;;;;;;;1.57;0.70;;;10.90;99.90;;;;;;5087371;28;20271;-70
2023/10/31 10:16:10;;;;;;;1.93;0.80;;;10.90;99.90;;;;;;5068017;28;20568;-74
2023/10/31 10:18:40;;;;;;;4.80;1.07;;;11.00;99.90;;;;;;5086561;28;20487;-73
2023/10/31 10:21:07;;;;;;;3.47;1.00;;;11.00;99.90;;;;;;5088047;28;20180;-72
2023/10/31 10:23:33;;;;;;;1.70;0.97;;;11.00;99.90;;;;;;5089932;28;20517;-74
2023/10/31 10:26:00;;;;;;;2.90;1.30;;;11.10;99.90;;;;;;5084269;28;20434;-73
2023/10/31 10:28:26;;;;;;;2.90;1.13;;;11.10;99.90;;;;;;5086165;28;20458;-74
2023/10/31 10:30:53;;;;;;;1.10;0.50;;;11.30;99.90;;;;;;5067371;28;20486;-75
2023/10/31 10:33:20;;;;;;;1.90;0.77;;;11.30;99.90;;;;;;5085314;28;20935;-75
2023/10/31 10:35:45;;;;;;;1.20;0.50;;;11.40;99.90;;;;;;5068284;28;20503;-73
2023/10/31 10:38:17;;;;;;;2.60;0.63;;;11.20;99.90;;;;;;5067126;28;20930;-76
2023/10/31 10:40:47;;;;;;;2.10;1.07;;;11.10;99.90;;;;;;5064066;28;20206;-75
2023/10/31 10:43:26;;;;;;;1.50;0.60;;;11.10;99.90;;;;;;5065655;28;20481;-73
2023/10/31 10:45:59;;;;;;;4.60;0.80;;;11.20;99.90;;;;;;5082061;28;20426;-73
2023/10/31 10:48:26;;;;;;;1.47;0.67;;;11.40;99.90;;;;;;5065765;28;20522;-73
2023/10/31 10:51:03;;;;;;;1.83;0.77;;;11.50;99.90;;;;;;5080463;28;21497;-72
2023/10/31 10:53:35;;;;;;;1.10;0.50;;;11.60;99.90;;;;;;5072961;28;20426;-74
2023/10/31 10:56:08;;;;;;;3.00;0.80;;;11.70;99.90;;;;;;5073621;28;20491;-72
2023/10/31 10:58:44;;;;;;;1.30;0.60;;;11.70;99.90;;;;;;5062855;28;20426;-74
2023/10/31 11:01:10;;;;;;;2.97;0.90;;;11.70;99.90;;;;;;5078402;28;20419;-75
2023/10/31 11:03:37;;;;;;;7.33;0.90;;;11.90;99.90;;;;;;5054995;28;20426;-73
2023/10/31 11:06:04;;;;;;;1.40;0.50;;;12.00;99.90;;;;;;5064473;28;20454;-74
2023/10/31 11:08:30;;;;;;;1.60;0.60;;;12.20;99.90;;;;;;5073120;28;20426;-73
2023/10/31 11:10:57;;;;;;;1.20;0.50;;;12.40;99.90;;;;;;5077826;28;20464;-73
2023/10/31 11:13:24;;;;;;;1.10;0.50;;;12.50;99.90;;;;;;5073452;28;20449;-72
2023/10/31 11:15:55;;;;;;;1.10;0.40;;;12.40;99.90;;;;;;5064107;28;20430;-73
2023/10/31 11:18:22;;;;;;;1.20;0.50;;;12.60;99.90;;;;;;5082369;28;20428;-73
2023/10/31 11:20:48;;;;;;;1.97;0.77;;;12.50;99.90;;;;;;5077849;28;20497;-73
2023/10/31 11:23:14;;;;;;;2.80;0.70;;;12.50;99.90;;;;;;5068261;28;20451;-75
2023/10/31 11:25:43;;;;;;;1.93;0.50;;;12.50;99.90;;;;;;5080830;28;20958;-73
2023/10/31 11:28:17;;;;;;;1.30;0.50;;;12.40;99.90;;;;;;5067738;28;20434;-73
2023/10/31 11:30:43;;;;;;;4.30;0.50;;;12.50;99.90;;;;;;5075171;28;20541;-72
2023/10/31 11:33:18;;;;;;;1.60;0.73;;;12.40;99.90;;;;;;5088339;28;20538;-73
2023/10/31 11:35:49;;;;;;;1.30;0.50;;;12.40;99.90;;;;;;5085340;28;20521;-71
2023/10/31 11:38:14;;;;;;;1.30;0.60;;;12.50;99.90;;;;;;5090565;28;20427;-72
2023/10/31 11:40:49;;;;;;;1.33;0.50;;;12.50;99.90;;;;;;5067721;28;20422;-73
2023/10/31 11:43:15;;;;;;;1.50;0.60;;;12.40;99.90;;;;;;5072118;28;20673;-75
2023/10/31 11:45:44;;;;;;;1.20;0.50;;;12.40;99.90;;;;;;5063355;28;20453;-72
2023/10/31 11:48:10;;;;;;;1.30;0.60;;;12.50;99.90;;;;;;5066516;28;20650;-75
2023/10/31 11:50:37;;;;;;;1.60;0.70;;;12.40;99.90;;;;;;5051191;28;20474;-72
2023/10/31 11:53:07;;;;;;;1.30;0.50;;;12.40;99.90;;;;;;5065876;28;20984;-76
2023/10/31 11:55:37;;;;;;;1.90;0.60;;;12.30;99.90;;;;;;5064705;28;20967;-73
2023/10/31 11:58:30;;;;;;;1.10;0.50;;;12.40;99.90;;;;;;5068856;28;20949;-72
2023/10/31 12:01:07;;;;;;;1.67;0.60;;;12.60;99.90;;;;;;5062920;28;20529;-75
2023/10/31 12:03:41;;;;;;;4.80;0.87;;;12.50;99.90;;;;;;5065401;28;20435;-72
2023/10/31 12:06:08;;;;;;;3.53;0.70;;;12.40;99.90;;;;;;5065581;28;20443;-73
2023/10/31 12:08:39;;;;;;;2.70;0.80;;;12.40;99.90;;;;;;5062262;28;20534;-75
2023/10/31 12:11:05;;;;;;;1.30;0.60;;;12.50;99.90;;;;;;5053055;28;20466;-72
2023/10/31 12:13:31;;;;;;;3.10;1.20;;;12.60;99.90;;;;;;5062563;28;20912;-73
2023/10/31 12:15:57;;;;;;;3.63;0.60;;;12.70;99.90;;;;;;5055900;28;20188;-73
2023/10/31 12:18:22;;;;;;;3.43;0.70;;;12.70;99.90;;;;;;5071375;28;20550;-73
2023/10/31 12:20:49;;;;;;;1.80;0.83;;;12.50;99.90;;;;;;5071424;28;20185;-74
2023/10/31 12:23:15;;;;;;;1.50;0.80;;;12.40;99.90;;;;;;5067912;28;20283;-72
2023/10/31 12:25:51;;;;;;;3.77;0.87;;;12.30;99.90;;;;;;5064942;28;20527;-73
2023/10/31 12:28:18;;;;;;;1.50;0.63;;;12.40;99.90;;;;;;5058950;28;20266;-72
2023/10/31 12:30:48;;;;;;;1.70;0.60;;;12.40;99.90;;;;;;5067208;28;20483;-73
2023/10/31 12:33:14;;;;;;;2.73;0.50;;;12.40;99.90;;;;;;5074133;28;20447;-72
2023/10/31 12:35:40;;;;;;;1.87;0.73;;;12.40;99.90;;;;;;5072521;28;20431;-73
2023/10/31 12:38:06;;;;;;;2.40;0.60;;;12.20;99.90;;;;;;5059909;28;20961;-74
2023/10/31 12:40:34;;;;;;;1.20;0.53;;;12.20;99.90;;;;;;5072041;28;20216;-72
2023/10/31 12:43:01;;;;;;;1.10;0.40;;;12.20;99.90;;;;;;5078985;28;20718;-73
2023/10/31 12:45:27;;;;;;;1.97;0.60;;;12.10;99.90;;;;;;5101563;28;20431;-71
2023/10/31 12:48:08;;;;;;;2.43;0.90;;;12.30;99.90;;;;;;5091886;28;20426;-82